sensor_id;sensor_type;location;lat;lon;timestamp;temperature;humidity
38241;DHT22;24037;49.536;8.500;2024-01-30T00:02:12;0.10;1.00
38241;DHT22;24037;49.536;8.500;2024-01-30T00:04:38;0.10;1.00
38241;DHT22;24037;49.536;8.500;2024-01-30T00:07:07;0.10;1.00
38241;DHT22;24037;49.536;8.500;2024-01-30T00:09:33;0.10;1.00
38241;DHT22;24037;49.536;8.500;2024-01-30T00:12:00;0.10;1.00
38241;DHT22;24037;49.536;8.500;2024-01-30T00:14:26;0.10;1.00
38241;DHT22;24037;49.536;8.500;2024-01-30T00:16:52;0.10;1.00
38241;DHT22;24037;49.536;8.500;2024-01-30T00:19:18;0.10;1.00
38241;DHT22;24037;49.536;8.500;2024-01-30T00:21:45;0.10;1.00
38241;DHT22;24037;49.536;8.500;2024-01-30T00:24:11;0.10;1.00
38241;DHT22;24037;49.536;8.500;2024-01-30T00:26:37;0.10;1.00
38241;DHT22;24037;49.536;8.500;2024-01-30T00:29:03;0.20;1.00
38241;DHT22;24037;49.536;8.500;2024-01-30T00:31:29;0.20;1.00
38241;DHT22;24037;49.536;8.500;2024-01-30T00:33:56;0.20;6.00
38241;DHT22;24037;49.536;8.500;2024-01-30T00:36:22;0.20;1.00
38241;DHT22;24037;49.536;8.500;2024-01-30T00:38:48;0.20;1.00
38241;DHT22;24037;49.536;8.500;2024-01-30T00:41:14;0.20;1.00
38241;DHT22;24037;49.536;8.500;2024-01-30T00:43:43;0.20;1.00
38241;DHT22;24037;49.536;8.500;2024-01-30T00:46:09;0.10;1.00
38241;DHT22;24037;49.536;8.500;2024-01-30T00:48:35;0.10;1.00
38241;DHT22;24037;49.536;8.500;2024-01-30T00:51:01;0.10;1.00
38241;DHT22;24037;49.536;8.500;2024-01-30T00:53:27;0.10;1.00
38241;DHT22;24037;49.536;8.500;2024-01-30T00:55:53;0.10;1.00
38241;DHT22;24037;49.536;8.500;2024-01-30T00:58:20;0.10;1.00
38241;DHT22;24037;49.536;8.500;2024-01-30T01:00:46;0.10;1.00
38241;DHT22;24037;49.536;8.500;2024-01-30T01:03:12;0.00;1.00
38241;DHT22;24037;49.536;8.500;2024-01-30T01:05:41;0.00;1.00
38241;DHT22;24037;49.536;8.500;2024-01-30T01:08:07;0.00;17.90
38241;DHT22;24037;49.536;8.500;2024-01-30T01:10:35;0.20;99.90
38241;DHT22;24037;49.536;8.500;2024-01-30T01:13:01;0.20;99.90
38241;DHT22;24037;49.536;8.500;2024-01-30T01:15:27;0.20;99.90
38241;DHT22;24037;49.536;8.500;2024-01-30T01:17:53;0.20;99.90
38241;DHT22;24037;49.536;8.500;2024-01-30T01:20:19;0.20;99.90
38241;DHT22;24037;49.536;8.500;2024-01-30T01:22:45;0.30;99.90
38241;DHT22;24037;49.536;8.500;2024-01-30T01:25:11;0.30;99.90
38241;DHT22;24037;49.536;8.500;2024-01-30T01:27:38;0.20;99.90
38241;DHT22;24037;49.536;8.500;2024-01-30T01:30:10;0.20;99.90
38241;DHT22;24037;49.536;8.500;2024-01-30T01:32:37;0.20;99.90
38241;DHT22;24037;49.536;8.500;2024-01-30T01:35:04;0.20;99.90
38241;DHT22;24037;49.536;8.500;2024-01-30T01:37:31;0.20;99.90
38241;DHT22;24037;49.536;8.500;2024-01-30T01:39:57;0.20;97.40
38241;DHT22;24037;49.536;8.500;2024-01-30T01:42:23;0.10;72.20
38241;DHT22;24037;49.536;8.500;2024-01-30T01:44:50;0.10;49.90
38241;DHT22;24037;49.536;8.500;2024-01-30T01:47:16;0.00;32.60
38241;DHT22;24037;49.536;8.500;2024-01-30T01:49:42;0.00;19.90
38241;DHT22;24037;49.536;8.500;2024-01-30T01:52:09;-0.10;16.00
38241;DHT22;24037;49.536;8.500;2024-01-30T01:54:35;0.00;53.20
38241;DHT22;24037;49.536;8.500;2024-01-30T01:57:02;0.00;89.60
38241;DHT22;24037;49.536;8.500;2024-01-30T01:59:29;0.00;99.90
38241;DHT22;24037;49.536;8.500;2024-01-30T02:01:55;0.00;99.90
38241;DHT22;24037;49.536;8.500;2024-01-30T02:04:21;0.00;99.90
38241;DHT22;24037;49.536;8.500;2024-01-30T02:06:48;0.00;99.90
38241;DHT22;24037;49.536;8.500;2024-01-30T02:09:14;-0.10;99.90
38241;DHT22;24037;49.536;8.500;2024-01-30T02:11:40;-0.10;99.90
38241;DHT22;24037;49.536;8.500;2024-01-30T02:14:07;-0.10;99.90
38241;DHT22;24037;49.536;8.500;2024-01-30T02:16:33;0.00;99.90
38241;DHT22;24037;49.536;8.500;2024-01-30T02:18:59;0.00;99.90
38241;DHT22;24037;49.536;8.500;2024-01-30T02:21:25;0.00;99.90
38241;DHT22;24037;49.536;8.500;2024-01-30T02:23:52;-0.10;99.90
38241;DHT22;24037;49.536;8.500;2024-01-30T02:26:20;-0.10;99.90
38241;DHT22;24037;49.536;8.500;2024-01-30T02:28:46;-0.10;99.90
38241;DHT22;24037;49.536;8.500;2024-01-30T02:31:13;-0.20;99.90
38241;DHT22;24037;49.536;8.500;2024-01-30T02:33:39;-0.20;99.90
38241;DHT22;24037;49.536;8.500;2024-01-30T02:36:05;-0.20;99.90
38241;DHT22;24037;49.536;8.500;2024-01-30T02:38:31;-0.30;99.90
38241;DHT22;24037;49.536;8.500;2024-01-30T02:40:57;-0.40;99.90
38241;DHT22;24037;49.536;8.500;2024-01-30T02:43:23;-0.40;99.90
38241;DHT22;24037;49.536;8.500;2024-01-30T02:45:50;-0.30;99.90
38241;DHT22;24037;49.536;8.500;2024-01-30T02:48:16;-0.50;99.90
38241;DHT22;24037;49.536;8.500;2024-01-30T02:50:42;-0.50;99.90
38241;DHT22;24037;49.536;8.500;2024-01-30T02:53:08;-0.50;99.90
38241;DHT22;24037;49.536;8.500;2024-01-30T02:55:35;-0.50;99.90
38241;DHT22;24037;49.536;8.500;2024-01-30T02:58:01;-0.50;99.90
38241;DHT22;24037;49.536;8.500;2024-01-30T03:00:27;-0.50;99.90
38241;DHT22;24037;49.536;8.500;2024-01-30T03:02:53;-0.50;99.90
38241;DHT22;24037;49.536;8.500;2024-01-30T03:05:19;-0.60;99.90
38241;DHT22;24037;49.536;8.500;2024-01-30T03:07:45;-0.60;99.90
38241;DHT22;24037;49.536;8.500;2024-01-30T03:10:12;-0.50;99.90
38241;DHT22;24037;49.536;8.500;2024-01-30T03:12:38;-0.50;99.90
38241;DHT22;24037;49.536;8.500;2024-01-30T03:15:04;-0.50;99.90
38241;DHT22;24037;49.536;8.500;2024-01-30T03:17:30;-0.60;99.90
38241;DHT22;24037;49.536;8.500;2024-01-30T03:19:56;-0.60;99.90
38241;DHT22;24037;49.536;8.500;2024-01-30T03:22:22;-0.60;99.90
38241;DHT22;24037;49.536;8.500;2024-01-30T03:24:49;-0.70;99.90
38241;DHT22;24037;49.536;8.500;2024-01-30T03:27:15;-0.70;99.90
38241;DHT22;24037;49.536;8.500;2024-01-30T03:29:41;-0.70;99.90
38241;DHT22;24037;49.536;8.500;2024-01-30T03:32:07;-0.70;99.90
38241;DHT22;24037;49.536;8.500;2024-01-30T03:34:33;-0.70;99.90
38241;DHT22;24037;49.536;8.500;2024-01-30T03:36:59;-0.70;99.90
38241;DHT22;24037;49.536;8.500;2024-01-30T03:39:25;-0.70;99.90
38241;DHT22;24037;49.536;8.500;2024-01-30T03:41:52;-0.70;99.90
38241;DHT22;24037;49.536;8.500;2024-01-30T03:44:18;-0.80;99.90
38241;DHT22;24037;49.536;8.500;2024-01-30T03:46:44;-0.70;99.90
38241;DHT22;24037;49.536;8.500;2024-01-30T03:49:10;-0.80;99.90
38241;DHT22;24037;49.536;8.500;2024-01-30T03:51:36;-0.80;99.90
38241;DHT22;24037;49.536;8.500;2024-01-30T03:54:02;-0.80;99.90
38241;DHT22;24037;49.536;8.500;2024-01-30T03:56:28;-0.80;99.90
38241;DHT22;24037;49.536;8.500;2024-01-30T03:58:54;-0.80;99.90
38241;DHT22;24037;49.536;8.500;2024-01-30T04:01:21;-0.80;99.90
38241;DHT22;24037;49.536;8.500;2024-01-30T04:03:47;-0.80;99.90
38241;DHT22;24037;49.536;8.500;2024-01-30T04:06:13;-0.80;99.90
38241;DHT22;24037;49.536;8.500;2024-01-30T04:08:40;-0.80;99.90
38241;DHT22;24037;49.536;8.500;2024-01-30T04:11:06;-0.90;99.90
38241;DHT22;24037;49.536;8.500;2024-01-30T04:13:33;-0.90;99.90
38241;DHT22;24037;49.536;8.500;2024-01-30T04:16:00;-0.90;99.90
38241;DHT22;24037;49.536;8.500;2024-01-30T04:18:29;-0.90;99.90
38241;DHT22;24037;49.536;8.500;2024-01-30T04:20:56;-0.90;97.60
38241;DHT22;24037;49.536;8.500;2024-01-30T04:23:25;-1.00;98.50
38241;DHT22;24037;49.536;8.500;2024-01-30T04:25:51;-1.00;96.90
38241;DHT22;24037;49.536;8.500;2024-01-30T04:28:18;-1.00;99.90
38241;DHT22;24037;49.536;8.500;2024-01-30T04:30:44;-0.90;99.90
38241;DHT22;24037;49.536;8.500;2024-01-30T04:33:10;-0.90;99.90
38241;DHT22;24037;49.536;8.500;2024-01-30T04:35:37;-0.90;99.90
38241;DHT22;24037;49.536;8.500;2024-01-30T04:38:03;-0.90;99.90
38241;DHT22;24037;49.536;8.500;2024-01-30T04:40:29;-0.90;99.90
38241;DHT22;24037;49.536;8.500;2024-01-30T04:42:55;-0.90;99.90
38241;DHT22;24037;49.536;8.500;2024-01-30T04:45:21;-0.90;99.90
38241;DHT22;24037;49.536;8.500;2024-01-30T04:47:47;-1.00;99.90
38241;DHT22;24037;49.536;8.500;2024-01-30T04:50:14;-1.00;99.90
38241;DHT22;24037;49.536;8.500;2024-01-30T04:52:40;-0.90;99.90
38241;DHT22;24037;49.536;8.500;2024-01-30T04:55:06;-0.90;99.90
38241;DHT22;24037;49.536;8.500;2024-01-30T04:57:33;-0.90;99.90
38241;DHT22;24037;49.536;8.500;2024-01-30T04:59:59;-0.90;97.60
38241;DHT22;24037;49.536;8.500;2024-01-30T05:02:26;-0.90;98.20
38241;DHT22;24037;49.536;8.500;2024-01-30T05:04:52;-0.90;99.90
38241;DHT22;24037;49.536;8.500;2024-01-30T05:07:18;-0.90;99.30
38241;DHT22;24037;49.536;8.500;2024-01-30T05:09:45;-0.90;93.10
38241;DHT22;24037;49.536;8.500;2024-01-30T05:12:11;-1.00;90.10
38241;DHT22;24037;49.536;8.500;2024-01-30T05:14:37;-1.00;86.00
38241;DHT22;24037;49.536;8.500;2024-01-30T05:17:03;-0.90;92.70
38241;DHT22;24037;49.536;8.500;2024-01-30T05:19:29;-0.90;97.10
38241;DHT22;24037;49.536;8.500;2024-01-30T05:21:56;-0.90;99.90
38241;DHT22;24037;49.536;8.500;2024-01-30T05:24:22;-0.80;99.90
38241;DHT22;24037;49.536;8.500;2024-01-30T05:26:48;-0.80;99.90
38241;DHT22;24037;49.536;8.500;2024-01-30T05:29:16;-0.80;99.90
38241;DHT22;24037;49.536;8.500;2024-01-30T05:31:42;-0.80;99.90
38241;DHT22;24037;49.536;8.500;2024-01-30T05:34:08;-0.80;99.90
38241;DHT22;24037;49.536;8.500;2024-01-30T05:36:35;-0.80;99.90
38241;DHT22;24037;49.536;8.500;2024-01-30T05:39:01;-0.80;99.90
38241;DHT22;24037;49.536;8.500;2024-01-30T05:41:27;-0.70;99.90
38241;DHT22;24037;49.536;8.500;2024-01-30T05:43:53;-0.70;99.90
38241;DHT22;24037;49.536;8.500;2024-01-30T05:46:20;-0.70;99.90
38241;DHT22;24037;49.536;8.500;2024-01-30T05:48:46;-0.60;99.90
38241;DHT22;24037;49.536;8.500;2024-01-30T05:51:12;-0.60;99.90
38241;DHT22;24037;49.536;8.500;2024-01-30T05:53:38;-0.50;99.90
38241;DHT22;24037;49.536;8.500;2024-01-30T05:56:05;-0.40;99.90
38241;DHT22;24037;49.536;8.500;2024-01-30T05:58:31;-0.20;99.90
38241;DHT22;24037;49.536;8.500;2024-01-30T06:00:57;-0.20;99.90
38241;DHT22;24037;49.536;8.500;2024-01-30T06:03:24;-0.20;99.90
38241;DHT22;24037;49.536;8.500;2024-01-30T06:05:50;-0.10;99.90
38241;DHT22;24037;49.536;8.500;2024-01-30T06:08:17;-0.10;99.90
38241;DHT22;24037;49.536;8.500;2024-01-30T06:10:43;-0.10;99.90
38241;DHT22;24037;49.536;8.500;2024-01-30T06:13:09;-0.10;99.90
38241;DHT22;24037;49.536;8.500;2024-01-30T06:15:35;-0.10;99.90
38241;DHT22;24037;49.536;8.500;2024-01-30T06:18:01;0.00;99.90
38241;DHT22;24037;49.536;8.500;2024-01-30T06:20:28;0.00;99.90
38241;DHT22;24037;49.536;8.500;2024-01-30T06:22:54;0.10;99.90
38241;DHT22;24037;49.536;8.500;2024-01-30T06:25:20;0.20;99.90
38241;DHT22;24037;49.536;8.500;2024-01-30T06:27:46;0.20;99.90
38241;DHT22;24037;49.536;8.500;2024-01-30T06:30:13;0.20;99.90
38241;DHT22;24037;49.536;8.500;2024-01-30T06:32:39;0.30;99.90
38241;DHT22;24037;49.536;8.500;2024-01-30T06:35:05;0.30;99.90
38241;DHT22;24037;49.536;8.500;2024-01-30T06:37:32;0.40;99.90
38241;DHT22;24037;49.536;8.500;2024-01-30T06:39:58;0.50;99.90
38241;DHT22;24037;49.536;8.500;2024-01-30T06:42:24;0.60;99.90
38241;DHT22;24037;49.536;8.500;2024-01-30T06:44:50;0.80;99.90
38241;DHT22;24037;49.536;8.500;2024-01-30T06:47:17;1.00;99.90
38241;DHT22;24037;49.536;8.500;2024-01-30T06:49:43;1.10;99.90
38241;DHT22;24037;49.536;8.500;2024-01-30T06:52:09;1.10;99.90
38241;DHT22;24037;49.536;8.500;2024-01-30T06:54:36;1.20;99.90
38241;DHT22;24037;49.536;8.500;2024-01-30T06:57:02;1.30;99.90
38241;DHT22;24037;49.536;8.500;2024-01-30T06:59:29;1.30;99.90
38241;DHT22;24037;49.536;8.500;2024-01-30T07:01:55;1.30;99.90
38241;DHT22;24037;49.536;8.500;2024-01-30T07:04:21;1.30;99.90
38241;DHT22;24037;49.536;8.500;2024-01-30T07:06:47;1.30;99.90
38241;DHT22;24037;49.536;8.500;2024-01-30T07:09:13;1.20;99.90
38241;DHT22;24037;49.536;8.500;2024-01-30T07:11:39;1.20;99.90
38241;DHT22;24037;49.536;8.500;2024-01-30T07:14:06;1.20;99.90
38241;DHT22;24037;49.536;8.500;2024-01-30T07:16:32;1.30;99.90
38241;DHT22;24037;49.536;8.500;2024-01-30T07:18:58;1.40;99.90
38241;DHT22;24037;49.536;8.500;2024-01-30T07:21:24;1.50;99.90
38241;DHT22;24037;49.536;8.500;2024-01-30T07:23:54;1.50;99.90
38241;DHT22;24037;49.536;8.500;2024-01-30T07:26:21;1.60;99.90
38241;DHT22;24037;49.536;8.500;2024-01-30T07:28:47;1.50;99.90
38241;DHT22;24037;49.536;8.500;2024-01-30T07:31:14;1.60;99.90
38241;DHT22;24037;49.536;8.500;2024-01-30T07:33:40;1.80;99.90
38241;DHT22;24037;49.536;8.500;2024-01-30T07:36:06;1.90;99.90
38241;DHT22;24037;49.536;8.500;2024-01-30T07:38:32;2.00;99.90
38241;DHT22;24037;49.536;8.500;2024-01-30T07:40:59;2.10;99.90
38241;DHT22;24037;49.536;8.500;2024-01-30T07:43:25;2.20;99.90
38241;DHT22;24037;49.536;8.500;2024-01-30T07:45:51;2.20;99.90
38241;DHT22;24037;49.536;8.500;2024-01-30T07:48:18;2.30;99.90
38241;DHT22;24037;49.536;8.500;2024-01-30T07:50:44;2.40;99.90
38241;DHT22;24037;49.536;8.500;2024-01-30T07:53:10;2.40;99.90
38241;DHT22;24037;49.536;8.500;2024-01-30T07:55:36;2.50;99.90
38241;DHT22;24037;49.536;8.500;2024-01-30T07:58:03;2.60;99.90
38241;DHT22;24037;49.536;8.500;2024-01-30T08:00:30;2.70;99.90
38241;DHT22;24037;49.536;8.500;2024-01-30T08:02:59;2.70;99.90
38241;DHT22;24037;49.536;8.500;2024-01-30T08:05:25;2.80;99.90
38241;DHT22;24037;49.536;8.500;2024-01-30T08:07:51;2.90;99.90
38241;DHT22;24037;49.536;8.500;2024-01-30T08:10:18;3.00;99.90
38241;DHT22;24037;49.536;8.500;2024-01-30T08:12:44;3.00;83.70
38241;DHT22;24037;49.536;8.500;2024-01-30T08:15:12;3.20;1.00
38241;DHT22;24037;49.536;8.500;2024-01-30T08:17:41;3.30;1.00
38241;DHT22;24037;49.536;8.500;2024-01-30T08:20:07;3.40;1.00
38241;DHT22;24037;49.536;8.500;2024-01-30T08:22:41;3.60;99.90
38241;DHT22;24037;49.536;8.500;2024-01-30T08:25:07;3.80;99.90
38241;DHT22;24037;49.536;8.500;2024-01-30T08:27:34;3.90;99.90
38241;DHT22;24037;49.536;8.500;2024-01-30T08:30:02;3.90;53.40
38241;DHT22;24037;49.536;8.500;2024-01-30T08:32:28;4.10;9.60
38241;DHT22;24037;49.536;8.500;2024-01-30T08:34:55;4.10;1.00
38241;DHT22;24037;49.536;8.500;2024-01-30T08:37:21;4.20;1.00
38241;DHT22;24037;49.536;8.500;2024-01-30T08:39:47;4.30;1.00
38241;DHT22;24037;49.536;8.500;2024-01-30T08:42:13;4.40;1.00
38241;DHT22;24037;49.536;8.500;2024-01-30T08:44:39;4.50;1.00
38241;DHT22;24037;49.536;8.500;2024-01-30T08:47:05;4.60;1.00
38241;DHT22;24037;49.536;8.500;2024-01-30T08:49:32;4.60;99.90
38241;DHT22;24037;49.536;8.500;2024-01-30T08:51:58;4.60;99.90
38241;DHT22;24037;49.536;8.500;2024-01-30T08:54:24;4.60;99.90
38241;DHT22;24037;49.536;8.500;2024-01-30T08:56:50;4.80;99.90
38241;DHT22;24037;49.536;8.500;2024-01-30T08:59:19;4.80;99.90
38241;DHT22;24037;49.536;8.500;2024-01-30T09:01:45;4.80;99.90
38241;DHT22;24037;49.536;8.500;2024-01-30T09:04:12;4.70;99.90
38241;DHT22;24037;49.536;8.500;2024-01-30T09:06:39;4.80;99.90
38241;DHT22;24037;49.536;8.500;2024-01-30T09:09:05;4.70;99.90
38241;DHT22;24037;49.536;8.500;2024-01-30T09:11:32;4.70;99.90
38241;DHT22;24037;49.536;8.500;2024-01-30T09:13:58;4.80;99.90
38241;DHT22;24037;49.536;8.500;2024-01-30T09:16:24;4.90;99.90
38241;DHT22;24037;49.536;8.500;2024-01-30T09:18:50;5.00;99.90
38241;DHT22;24037;49.536;8.500;2024-01-30T09:21:16;5.00;99.90
38241;DHT22;24037;49.536;8.500;2024-01-30T09:23:42;5.10;99.90
38241;DHT22;24037;49.536;8.500;2024-01-30T09:26:09;5.20;99.90
38241;DHT22;24037;49.536;8.500;2024-01-30T09:28:35;5.20;99.90
38241;DHT22;24037;49.536;8.500;2024-01-30T09:31:01;5.20;99.90
38241;DHT22;24037;49.536;8.500;2024-01-30T09:33:28;5.40;99.90
38241;DHT22;24037;49.536;8.500;2024-01-30T09:35:54;5.50;99.90
38241;DHT22;24037;49.536;8.500;2024-01-30T09:38:21;5.50;99.90
38241;DHT22;24037;49.536;8.500;2024-01-30T09:40:55;5.60;99.90
38241;DHT22;24037;49.536;8.500;2024-01-30T09:43:24;5.70;99.90
38241;DHT22;24037;49.536;8.500;2024-01-30T09:45:52;5.90;99.90
38241;DHT22;24037;49.536;8.500;2024-01-30T09:48:19;6.00;99.90
38241;DHT22;24037;49.536;8.500;2024-01-30T09:50:46;6.10;99.90
38241;DHT22;24037;49.536;8.500;2024-01-30T09:53:13;6.10;99.90
38241;DHT22;24037;49.536;8.500;2024-01-30T09:55:43;6.20;85.70
38241;DHT22;24037;49.536;8.500;2024-01-30T09:58:09;6.30;87.50
38241;DHT22;24037;49.536;8.500;2024-01-30T10:00:35;6.40;30.80
38241;DHT22;24037;49.536;8.500;2024-01-30T10:03:01;6.30;24.90
38241;DHT22;24037;49.536;8.500;2024-01-30T10:05:28;6.50;3.50
38241;DHT22;24037;49.536;8.500;2024-01-30T10:07:57;6.50;5.20
38241;DHT22;24037;49.536;8.500;2024-01-30T10:10:25;6.50;4.70
38241;DHT22;24037;49.536;8.500;2024-01-30T10:12:51;6.50;13.40
38241;DHT22;24037;49.536;8.500;2024-01-30T10:15:18;6.60;1.00
38241;DHT22;24037;49.536;8.500;2024-01-30T10:17:45;6.80;1.00
38241;DHT22;24037;49.536;8.500;2024-01-30T10:20:12;6.70;1.00
38241;DHT22;24037;49.536;8.500;2024-01-30T10:22:40;6.70;1.00
38241;DHT22;24037;49.536;8.500;2024-01-30T10:25:10;6.80;1.00
38241;DHT22;24037;49.536;8.500;2024-01-30T10:27:38;6.90;1.00
38241;DHT22;24037;49.536;8.500;2024-01-30T10:30:05;7.00;1.00
38241;DHT22;24037;49.536;8.500;2024-01-30T10:32:32;7.00;1.00
38241;DHT22;24037;49.536;8.500;2024-01-30T10:34:58;7.10;1.00
38241;DHT22;24037;49.536;8.500;2024-01-30T10:37:25;7.10;1.00
38241;DHT22;24037;49.536;8.500;2024-01-30T10:39:53;7.10;1.00
38241;DHT22;24037;49.536;8.500;2024-01-30T10:42:25;7.20;1.00
38241;DHT22;24037;49.536;8.500;2024-01-30T10:45:11;7.20;1.00
38241;DHT22;24037;49.536;8.500;2024-01-30T10:47:48;7.20;1.00
38241;DHT22;24037;49.536;8.500;2024-01-30T10:50:15;7.20;1.00
38241;DHT22;24037;49.536;8.500;2024-01-30T10:52:42;7.20;1.00
38241;DHT22;24037;49.536;8.500;2024-01-30T10:55:10;7.40;99.90
38241;DHT22;24037;49.536;8.500;2024-01-30T10:57:37;7.30;99.90
38241;DHT22;24037;49.536;8.500;2024-01-30T11:00:11;7.30;99.90
38241;DHT22;24037;49.536;8.500;2024-01-30T11:02:40;7.50;99.90
38241;DHT22;24037;49.536;8.500;2024-01-30T11:05:08;7.60;99.90
38241;DHT22;24037;49.536;8.500;2024-01-30T11:07:34;7.70;99.90
38241;DHT22;24037;49.536;8.500;2024-01-30T11:10:04;7.80;99.90
38241;DHT22;24037;49.536;8.500;2024-01-30T11:12:32;7.90;99.90
38241;DHT22;24037;49.536;8.500;2024-01-30T11:15:18;8.10;99.90
38241;DHT22;24037;49.536;8.500;2024-01-30T11:17:53;8.10;99.90
38241;DHT22;24037;49.536;8.500;2024-01-30T11:20:25;8.00;99.90
38241;DHT22;24037;49.536;8.500;2024-01-30T11:22:54;8.10;99.90
38241;DHT22;24037;49.536;8.500;2024-01-30T11:25:22;8.00;99.90
38241;DHT22;24037;49.536;8.500;2024-01-30T11:27:53;8.10;99.90
38241;DHT22;24037;49.536;8.500;2024-01-30T11:30:30;8.10;99.90
38241;DHT22;24037;49.536;8.500;2024-01-30T11:33:13;8.10;99.90
38241;DHT22;24037;49.536;8.500;2024-01-30T11:35:43;8.20;99.90
38241;DHT22;24037;49.536;8.500;2024-01-30T11:38:13;8.30;99.90
38241;DHT22;24037;49.536;8.500;2024-01-30T11:40:40;8.40;99.90
38241;DHT22;24037;49.536;8.500;2024-01-30T11:43:08;8.40;99.90
38241;DHT22;24037;49.536;8.500;2024-01-30T11:45:35;8.40;99.90
38241;DHT22;24037;49.536;8.500;2024-01-30T11:48:03;8.60;93.50
38241;DHT22;24037;49.536;8.500;2024-01-30T11:50:30;8.60;89.60
38241;DHT22;24037;49.536;8.500;2024-01-30T11:52:56;8.70;41.20
38241;DHT22;24037;49.536;8.500;2024-01-30T11:55:24;8.70;30.10
38241;DHT22;24037;49.536;8.500;2024-01-30T11:57:50;8.70;47.30
38241;DHT22;24037;49.536;8.500;2024-01-30T12:00:17;8.70;47.40
38241;DHT22;24037;49.536;8.500;2024-01-30T12:02:48;8.80;27.70
38241;DHT22;24037;49.536;8.500;2024-01-30T12:05:15;8.80;8.40
38241;DHT22;24037;49.536;8.500;2024-01-30T12:07:44;8.90;1.00
38241;DHT22;24037;49.536;8.500;2024-01-30T12:10:13;9.00;1.00
38241;DHT22;24037;49.536;8.500;2024-01-30T12:12:45;9.10;1.00
38241;DHT22;24037;49.536;8.500;2024-01-30T12:15:13;9.10;4.30
38241;DHT22;24037;49.536;8.500;2024-01-30T12:17:39;9.20;1.00
38241;DHT22;24037;49.536;8.500;2024-01-30T12:22:46;9.20;1.00
38241;DHT22;24037;49.536;8.500;2024-01-30T12:25:14;9.30;1.00
38241;DHT22;24037;49.536;8.500;2024-01-30T12:27:43;9.30;1.00
38241;DHT22;24037;49.536;8.500;2024-01-30T12:30:13;9.30;1.00
38241;DHT22;24037;49.536;8.500;2024-01-30T12:32:47;9.30;1.00
38241;DHT22;24037;49.536;8.500;2024-01-30T12:35:16;9.40;1.00
38241;DHT22;24037;49.536;8.500;2024-01-30T12:37:44;9.40;1.00
38241;DHT22;24037;49.536;8.500;2024-01-30T12:40:11;9.40;1.00
38241;DHT22;24037;49.536;8.500;2024-01-30T12:42:39;9.40;1.00
38241;DHT22;24037;49.536;8.500;2024-01-30T12:45:06;9.50;1.00
38241;DHT22;24037;49.536;8.500;2024-01-30T12:47:32;9.50;1.00
38241;DHT22;24037;49.536;8.500;2024-01-30T12:49:58;9.60;1.00
38241;DHT22;24037;49.536;8.500;2024-01-30T12:52:25;9.70;1.00
38241;DHT22;24037;49.536;8.500;2024-01-30T12:54:51;9.70;1.00
38241;DHT22;24037;49.536;8.500;2024-01-30T12:57:18;9.70;1.00
38241;DHT22;24037;49.536;8.500;2024-01-30T12:59:45;9.80;1.00
38241;DHT22;24037;49.536;8.500;2024-01-30T13:02:13;9.80;1.00
38241;DHT22;24037;49.536;8.500;2024-01-30T13:04:39;9.80;1.00
38241;DHT22;24037;49.536;8.500;2024-01-30T13:07:06;9.90;1.00
38241;DHT22;24037;49.536;8.500;2024-01-30T13:09:32;10.00;1.00
38241;DHT22;24037;49.536;8.500;2024-01-30T13:11:59;10.00;1.00
38241;DHT22;24037;49.536;8.500;2024-01-30T13:14:26;10.00;1.00
38241;DHT22;24037;49.536;8.500;2024-01-30T13:16:52;10.10;1.00
38241;DHT22;24037;49.536;8.500;2024-01-30T13:19:19;10.10;1.00
38241;DHT22;24037;49.536;8.500;2024-01-30T13:21:45;10.10;1.00
38241;DHT22;24037;49.536;8.500;2024-01-30T13:24:12;10.20;1.00
38241;DHT22;24037;49.536;8.500;2024-01-30T13:26:38;10.20;1.00
38241;DHT22;24037;49.536;8.500;2024-01-30T13:29:05;10.20;1.00
38241;DHT22;24037;49.536;8.500;2024-01-30T13:31:31;10.30;1.00
38241;DHT22;24037;49.536;8.500;2024-01-30T13:33:57;10.20;1.00
38241;DHT22;24037;49.536;8.500;2024-01-30T13:36:23;10.20;1.00
38241;DHT22;24037;49.536;8.500;2024-01-30T13:38:50;10.20;1.00
38241;DHT22;24037;49.536;8.500;2024-01-30T13:41:16;10.20;1.00
38241;DHT22;24037;49.536;8.500;2024-01-30T13:43:44;10.20;1.00
38241;DHT22;24037;49.536;8.500;2024-01-30T13:46:10;10.20;1.00
38241;DHT22;24037;49.536;8.500;2024-01-30T13:48:37;10.20;1.00
38241;DHT22;24037;49.536;8.500;2024-01-30T13:51:03;10.30;1.00
38241;DHT22;24037;49.536;8.500;2024-01-30T13:53:29;10.30;1.00
38241;DHT22;24037;49.536;8.500;2024-01-30T13:55:55;10.40;1.00
38241;DHT22;24037;49.536;8.500;2024-01-30T13:58:22;10.40;1.00
38241;DHT22;24037;49.536;8.500;2024-01-30T14:00:48;10.40;1.00
38241;DHT22;24037;49.536;8.500;2024-01-30T14:03:15;10.40;1.00
38241;DHT22;24037;49.536;8.500;2024-01-30T14:05:41;10.40;1.00
38241;DHT22;24037;49.536;8.500;2024-01-30T14:08:07;10.40;1.00
38241;DHT22;24037;49.536;8.500;2024-01-30T14:10:34;10.40;1.00
38241;DHT22;24037;49.536;8.500;2024-01-30T14:13:00;10.40;1.00
38241;DHT22;24037;49.536;8.500;2024-01-30T14:15:27;10.40;1.00
38241;DHT22;24037;49.536;8.500;2024-01-30T14:17:53;10.30;1.00
38241;DHT22;24037;49.536;8.500;2024-01-30T14:20:19;10.20;1.00
38241;DHT22;24037;49.536;8.500;2024-01-30T14:22:46;10.20;1.00
38241;DHT22;24037;49.536;8.500;2024-01-30T14:25:12;10.10;1.00
38241;DHT22;24037;49.536;8.500;2024-01-30T14:27:38;10.10;1.00
38241;DHT22;24037;49.536;8.500;2024-01-30T14:30:05;10.10;1.00
38241;DHT22;24037;49.536;8.500;2024-01-30T14:32:31;10.10;1.00
38241;DHT22;24037;49.536;8.500;2024-01-30T14:34:57;10.00;1.00
38241;DHT22;24037;49.536;8.500;2024-01-30T14:37:24;10.00;1.00
38241;DHT22;24037;49.536;8.500;2024-01-30T14:39:50;10.00;1.00
38241;DHT22;24037;49.536;8.500;2024-01-30T14:42:16;10.00;1.00
38241;DHT22;24037;49.536;8.500;2024-01-30T14:44:42;10.00;1.00
38241;DHT22;24037;49.536;8.500;2024-01-30T14:47:09;10.00;1.00
38241;DHT22;24037;49.536;8.500;2024-01-30T14:49:35;10.00;1.00
38241;DHT22;24037;49.536;8.500;2024-01-30T14:52:01;10.00;1.00
38241;DHT22;24037;49.536;8.500;2024-01-30T14:54:30;10.00;1.00
38241;DHT22;24037;49.536;8.500;2024-01-30T14:56:56;9.90;1.00
38241;DHT22;24037;49.536;8.500;2024-01-30T14:59:23;9.90;1.00
38241;DHT22;24037;49.536;8.500;2024-01-30T15:01:49;9.90;1.30
38241;DHT22;24037;49.536;8.500;2024-01-30T15:04:16;9.80;7.50
38241;DHT22;24037;49.536;8.500;2024-01-30T15:06:42;9.80;10.70
38241;DHT22;24037;49.536;8.500;2024-01-30T15:09:12;9.80;12.80
38241;DHT22;24037;49.536;8.500;2024-01-30T15:11:47;9.80;21.60
38241;DHT22;24037;49.536;8.500;2024-01-30T15:14:14;9.80;23.50
38241;DHT22;24037;49.536;8.500;2024-01-30T15:16:40;9.80;29.50
38241;DHT22;24037;49.536;8.500;2024-01-30T15:19:08;9.80;38.60
38241;DHT22;24037;49.536;8.500;2024-01-30T15:21:34;9.70;45.00
38241;DHT22;24037;49.536;8.500;2024-01-30T15:24:02;9.60;49.80
38241;DHT22;24037;49.536;8.500;2024-01-30T15:26:29;9.60;62.20
38241;DHT22;24037;49.536;8.500;2024-01-30T15:28:55;9.60;68.90
38241;DHT22;24037;49.536;8.500;2024-01-30T15:31:21;9.60;77.80
38241;DHT22;24037;49.536;8.500;2024-01-30T15:33:47;9.50;88.00
38241;DHT22;24037;49.536;8.500;2024-01-30T15:36:13;9.50;91.50
38241;DHT22;24037;49.536;8.500;2024-01-30T15:38:40;9.50;93.70
38241;DHT22;24037;49.536;8.500;2024-01-30T15:41:07;9.50;95.40
38241;DHT22;24037;49.536;8.500;2024-01-30T15:43:33;9.40;97.90
38241;DHT22;24037;49.536;8.500;2024-01-30T15:46:00;9.40;99.70